Time;durP1;ratioP1;P1;durP2;ratioP2;P2;SDS_P1;SDS_P2;PMS_P1;PMS_P2;Temp;Humidity;BMP_temperature;BMP_pressure;BME280_temperature;BME280_humidity;BME280_pressure;Samples;Min_cycle;Max_cycle;Signal;HPM_P1;HPM_P2
2022/06/18 00:01:34;;;;;;;6.65;2.55;;;22.20;83.10;;;20.81;69.39;100786.59;5071333;28;20040;-78
2022/06/18 00:04:07;;;;;;;6.80;2.72;;;22.20;83.10;;;20.76;69.69;100783.75;5071675;28;20099;-78
2022/06/18 00:06:39;;;;;;;4.60;2.40;;;22.20;83.30;;;20.78;69.75;100784.34;5071065;28;20068;-79
2022/06/18 00:09:06;;;;;;;8.63;3.00;;;22.20;83.30;;;20.77;69.40;100777.09;5071449;28;20041;-79
2022/06/18 00:14:18;;;;;;;5.63;2.75;;;22.20;83.50;;;20.75;69.76;100774.59;5022870;28;20426;-77
2022/06/18 00:16:45;;;;;;;9.52;2.42;;;22.20;83.30;;;20.74;69.93;100772.91;5066839;28;20044;-78
2022/06/18 00:19:14;;;;;;;9.00;2.60;;;22.20;83.30;;;20.69;70.32;100770.03;5082761;28;20136;-77
2022/06/18 00:21:41;;;;;;;7.50;2.90;;;22.10;83.60;;;20.67;70.06;100761.97;5080973;28;20127;-77
2022/06/18 00:24:16;;;;;;;7.18;2.38;;;22.10;83.40;;;20.65;70.74;100768.84;5067101;28;20075;-79
2022/06/18 00:26:44;;;;;;;6.00;2.85;;;22.20;83.80;;;20.68;70.69;100763.69;5069197;28;20052;-78
2022/06/18 00:29:15;;;;;;;5.65;2.53;;;22.10;83.50;;;20.66;70.42;100765.03;5037826;28;20041;-78
2022/06/18 00:31:42;;;;;;;6.38;2.50;;;22.10;83.80;;;20.66;70.61;100760.31;5056429;28;20131;-78
2022/06/18 00:34:10;;;;;;;4.78;2.65;;;22.10;83.80;;;20.63;71.41;100755.28;5069194;28;20040;-78
2022/06/18 00:36:42;;;;;;;6.03;2.70;;;22.20;84.20;;;20.61;71.56;100754.69;5051522;28;20060;-78
2022/06/18 00:39:15;;;;;;;5.95;2.53;;;22.20;84.50;;;20.61;71.40;100757.44;5034373;28;20049;-77
2022/06/18 00:41:46;;;;;;;10.02;2.50;;;22.10;84.50;;;20.61;71.15;100751.91;5051627;28;20115;-78
2022/06/18 00:44:27;;;;;;;5.15;2.10;;;22.10;84.50;;;20.62;70.77;100742.53;5052330;28;20124;-78
2022/06/18 00:47:09;;;;;;;6.35;2.20;;;22.10;84.20;;;20.62;70.70;100742.53;5048622;28;20131;-78
2022/06/18 00:49:46;;;;;;;7.07;2.55;;;22.20;84.40;;;20.69;69.87;100748.78;5047423;28;20451;-78
2022/06/18 00:52:23;;;;;;;5.72;2.47;;;22.20;83.60;;;20.73;69.80;100742.72;5070761;28;20056;-78
2022/06/18 00:54:58;;;;;;;5.63;2.50;;;22.10;83.80;;;20.68;70.27;100749.84;5053251;28;20045;-78
2022/06/18 00:57:31;;;;;;;4.43;2.17;;;22.30;84.20;;;20.74;69.86;100738.91;5053040;28;20545;-78
2022/06/18 01:00:07;;;;;;;7.10;2.28;;;22.20;83.90;;;20.76;69.68;100742.25;5056527;28;20043;-78
2022/06/18 01:02:42;;;;;;;5.30;2.45;;;22.20;84.00;;;20.77;69.48;100741.16;5052930;28;20053;-78
2022/06/18 01:05:23;;;;;;;5.68;2.35;;;22.10;83.60;;;20.74;69.80;100734.19;5052335;28;20044;-78
2022/06/18 01:07:55;;;;;;;;;;;22.20;84.00;;;20.77;69.96;100732.84;5070830;28;20502;-78
2022/06/18 01:10:27;;;;;;;;;;;22.20;84.00;;;20.77;69.47;100732.84;5052924;28;19978;-77
2022/06/18 01:12:55;;;;;;;5.75;2.22;;;22.10;83.60;;;20.80;69.58;100732.38;5052032;28;19924;-79
2022/06/18 01:15:23;;;;;;;8.95;2.33;;;22.20;83.90;;;20.76;69.41;100732.03;5069600;28;20047;-78
2022/06/18 01:17:56;;;;;;;7.68;2.30;;;22.20;83.90;;;20.75;69.29;100735.03;5051737;28;20090;-78
2022/06/18 01:20:26;;;;;;;6.68;2.47;;;22.20;83.60;;;20.79;69.64;100719.59;5062974;28;20299;-78
2022/06/18 01:23:07;;;;;;;4.15;1.90;;;22.20;83.80;;;20.79;69.35;100731.53;5038553;28;20056;-78
2022/06/18 01:25:36;;;;;;;;;;;22.20;83.80;;;20.92;68.04;100727.59;5044514;28;20132;-78
2022/06/18 01:28:04;;;;;;;8.52;2.10;;;22.20;83.00;;;20.97;68.01;100726.88;5032740;28;19932;-78
2022/06/18 01:30:37;;;;;;;4.32;2.10;;;22.20;83.00;;;20.96;68.11;100726.03;5051388;28;20076;-78
2022/06/18 01:33:09;;;;;;;3.97;2.05;;;22.30;83.20;;;20.95;68.11;100723.53;5069339;28;20491;-78
2022/06/18 01:35:47;;;;;;;5.30;2.13;;;22.30;83.20;;;20.94;68.15;100717.13;5063453;28;20049;-78
2022/06/18 01:38:18;;;;;;;5.53;2.67;;;22.20;83.10;;;20.95;68.51;100720.75;5033035;28;20049;-78
2022/06/18 01:40:56;;;;;;;8.10;2.00;;;22.20;83.50;;;20.94;67.95;100719.91;5032434;28;20128;-78
2022/06/18 01:43:25;;;;;;;5.97;2.60;;;22.30;83.20;;;20.94;67.97;100722.66;5032271;28;20045;-78
2022/06/18 01:45:59;;;;;;;5.07;2.60;;;22.30;83.30;;;20.94;68.04;100705.22;5059206;28;20107;-78
2022/06/18 01:48:36;;;;;;;3.72;2.00;;;22.30;83.10;;;20.98;68.01;100718.34;5050388;28;20099;-78
2022/06/18 01:51:13;;;;;;;4.90;2.38;;;22.30;83.10;;;20.94;67.71;100721.84;5053486;28;20084;-78
2022/06/18 01:53:47;;;;;;;3.45;1.90;;;22.30;83.10;;;20.93;68.15;100709.94;5053372;28;20139;-78
2022/06/18 01:56:22;;;;;;;4.53;1.85;;;22.30;83.40;;;20.87;68.81;100713.69;5064331;28;20075;-78
2022/06/18 01:58:54;;;;;;;5.25;2.50;;;22.20;83.70;;;20.81;68.92;100707.22;5056114;28;20075;-78
2022/06/18 02:01:42;;;;;;;5.07;2.47;;;22.20;83.40;;;20.83;68.45;100704.22;5056037;28;20426;-78
2022/06/18 02:04:10;;;;;;;4.93;2.30;;;22.30;83.30;;;20.79;68.94;100711.31;5053728;28;20232;-78
2022/06/18 02:06:39;;;;;;;7.03;2.20;;;22.20;83.30;;;20.79;68.70;100712.19;5058463;28;20045;-78
2022/06/18 02:09:15;;;;;;;4.60;2.20;;;22.20;83.40;;;20.78;68.81;100704.13;5054749;28;20131;-78
2022/06/18 02:11:46;;;;;;;5.30;2.25;;;22.20;83.30;;;20.76;68.95;100709.06;5056174;28;20056;-78
2022/06/18 02:14:15;;;;;;;5.80;1.95;;;22.20;83.30;;;20.76;68.62;100715.44;5045260;28;20095;-78
2022/06/18 02:16:47;;;;;;;5.55;2.55;;;22.20;83.40;;;20.72;69.70;100707.88;5036272;28;20041;-78
2022/06/18 02:19:17;;;;;;;9.82;2.47;;;22.20;83.60;;;20.67;69.87;100706.66;5053186;28;20101;-78
2022/06/18 02:21:48;;;;;;;6.60;2.38;;;22.20;83.80;;;20.61;70.16;100706.84;5071820;28;20048;-78
2022/06/18 02:24:16;;;;;;;;;;;22.10;83.80;;;20.59;70.46;100701.50;5066938;28;20041;-78
2022/06/18 02:26:46;;;;;;;7.35;2.50;;;22.20;84.00;;;20.56;70.82;100696.50;5055176;28;20301;-78
2022/06/18 02:29:20;;;;;;;5.53;2.33;;;22.10;84.20;;;20.49;71.39;100698.56;5055557;28;20053;-78
2022/06/18 02:31:47;;;;;;;5.72;2.20;;;22.10;84.50;;;20.44;71.72;100695.69;5055365;28;20055;-78
2022/06/18 02:34:19;;;;;;;5.68;2.30;;;22.10;84.70;;;20.41;71.99;100701.69;5055381;28;20041;-78
2022/06/18 02:36:47;;;;;;;6.88;2.55;;;22.10;84.80;;;20.38;72.20;100702.19;5055175;28;20070;-78
2022/06/18 02:39:24;;;;;;;6.05;2.67;;;22.00;84.90;;;20.29;73.09;100699.81;5063365;28;20044;-78
2022/06/18 02:42:01;;;;;;;7.22;2.70;;;22.00;85.10;;;20.21;73.80;100697.44;5063461;28;20060;-78
2022/06/18 02:44:29;;;;;;;5.45;2.33;;;22.00;85.60;;;20.10;74.58;100699.16;5051790;28;20044;-78
2022/06/18 02:47:00;;;;;;;7.00;2.58;;;22.00;86.10;;;20.10;74.23;100703.81;5047438;28;20041;-78
2022/06/18 02:49:27;;;;;;;8.45;2.47;;;22.00;86.00;;;20.04;75.16;100691.81;5068138;28;20054;-78
2022/06/18 02:51:55;;;;;;;5.68;2.50;;;21.90;86.40;;;20.02;75.93;100695.91;5072193;28;20044;-78
2022/06/18 02:54:24;;;;;;;7.38;2.72;;;21.90;86.70;;;20.01;75.30;100696.97;5053585;28;20060;-78
2022/06/18 02:56:53;;;;;;;6.10;2.25;;;21.90;86.50;;;19.99;75.67;100700.00;5071954;28;20391;-78
2022/06/18 02:59:20;;;;;;;5.22;2.50;;;21.90;86.70;;;19.94;76.11;100697.13;5071118;28;20056;-78
2022/06/18 03:01:47;;;;;;;5.72;2.42;;;21.80;86.90;;;19.96;75.72;100699.66;5064942;28;20131;-78
2022/06/18 03:04:15;;;;;;;8.50;2.80;;;21.80;86.70;;;19.97;75.72;100701.31;5072482;28;20048;-78
2022/06/18 03:06:42;;;;;;;4.25;2.03;;;21.80;86.70;;;19.95;75.54;100704.31;5063413;28;20145;-78
2022/06/18 03:09:10;;;;;;;7.22;2.30;;;21.80;86.60;;;19.94;75.41;100707.34;5034573;28;20083;-78
2022/06/18 03:14:24;;;;;;;5.13;2.53;;;21.80;86.30;;;19.92;76.82;100711.19;5035926;28;20048;-78
2022/06/18 03:16:52;;;;;;;4.30;2.30;;;21.80;87.30;;;19.93;76.35;100712.00;5035900;28;20041;-78
2022/06/18 03:19:33;;;;;;;7.68;2.22;;;21.80;87.30;;;19.92;76.00;100705.66;5070073;28;20037;-78
2022/06/18 03:22:08;;;;;;;7.43;2.42;;;21.80;87.20;;;19.91;76.36;100703.13;5050351;28;20511;-78
2022/06/18 03:24:36;;;;;;;4.53;2.42;;;21.70;87.40;;;19.95;75.78;100709.84;5034514;28;20064;-78
2022/06/18 03:27:05;;;;;;;8.98;2.80;;;21.70;87.10;;;19.98;75.65;100714.06;5057107;28;20041;-78
2022/06/18 03:29:33;;;;;;;6.93;2.40;;;21.70;87.10;;;20.03;75.55;100711.41;5062364;28;20044;-78
2022/06/18 03:32:02;;;;;;;5.30;2.40;;;21.80;87.10;;;20.05;75.42;100714.78;5065856;28;20041;-78
2022/06/18 03:34:31;;;;;;;5.72;2.33;;;21.70;87.20;;;20.08;75.72;100712.34;5034223;28;20098;-78
2022/06/18 03:36:58;;;;;;;5.00;2.42;;;21.80;87.20;;;20.09;75.83;100716.81;5044301;28;20072;-78
2022/06/18 03:39:27;;;;;;;6.30;2.45;;;21.80;87.30;;;20.14;76.05;100718.00;5053758;28;20417;-78
2022/06/18 03:41:55;;;;;;;6.45;2.72;;;21.70;87.50;;;20.19;75.80;100713.41;5045048;28;20041;-78
2022/06/18 03:44:24;;;;;;;5.97;2.72;;;21.70;87.50;;;20.21;76.23;100724.22;5047267;28;20455;-78
2022/06/18 03:46:53;;;;;;;5.88;2.30;;;21.80;87.90;;;20.26;74.70;100716.88;5061588;28;20502;-78
2022/06/18 03:49:32;;;;;;;7.30;2.72;;;21.80;87.70;;;20.41;74.73;100729.34;5053482;28;20422;-78
2022/06/18 03:52:04;;;;;;;6.35;2.40;;;21.80;87.30;;;20.46;74.58;100715.63;5053690;28;20076;-78
2022/06/18 03:54:32;;;;;;;4.68;2.80;;;21.80;87.40;;;20.52;74.93;100714.63;5053443;28;20048;-78
2022/06/18 03:57:02;;;;;;;3.97;2.35;;;21.80;87.50;;;20.49;76.04;100721.50;5043902;28;20103;-78
2022/06/18 03:59:30;;;;;;;6.03;2.42;;;21.80;88.30;;;20.55;76.16;100714.16;5039205;28;20053;-78
2022/06/18 04:01:59;;;;;;;4.43;2.42;;;21.80;88.50;;;20.59;75.55;100717.28;5050528;28;20044;-78
2022/06/18 04:04:31;;;;;;;5.65;2.17;;;21.80;88.70;;;20.69;74.53;100723.88;5052984;28;20068;-78
2022/06/18 04:06:59;;;;;;;6.07;2.70;;;21.90;88.20;;;20.74;75.58;100723.13;5044185;28;20139;-78
2022/06/18 04:09:52;;;;;;;4.75;2.67;;;21.90;89.10;;;20.77;75.89;100717.13;5038219;28;20044;-78
2022/06/18 04:12:24;;;;;;;4.78;2.53;;;21.90;89.40;;;20.87;74.00;100717.31;5053603;28;20044;-78
2022/06/18 04:15:09;;;;;;;4.90;2.88;;;21.90;88.60;;;20.96;74.44;100717.75;5048908;28;20045;-78
2022/06/18 04:17:44;;;;;;;7.97;3.63;;;22.00;88.70;;;21.07;73.44;100715.97;5044717;28;20131;-78
2022/06/18 04:20:21;;;;;;;9.82;3.22;;;22.00;88.30;;;21.14;72.69;100716.66;5059220;28;20033;-78
2022/06/18 04:22:49;;;;;;;7.75;4.13;;;22.00;88.00;;;21.28;72.15;100719.94;5033120;28;20455;-78
2022/06/18 04:25:16;;;;;;;13.98;4.18;;;22.00;87.60;;;21.33;72.83;100716.44;5049566;28;20573;-78
2022/06/18 04:27:44;;;;;;;7.43;4.53;;;22.10;88.00;;;21.39;71.68;100721.78;5065650;28;20383;-81
2022/06/18 04:30:14;;;;;;;11.95;5.10;;;22.10;88.00;;;21.48;71.07;100722.25;5063316;28;20032;-77
2022/06/18 04:32:55;;;;;;;;;;;22.10;87.60;;;21.61;70.83;100715.50;5035864;28;20056;-77
2022/06/18 04:35:22;;;;;;;14.93;6.38;;;22.20;87.20;;;21.67;71.24;100714.53;5052342;28;19924;-78
2022/06/18 04:38:06;;;;;;;12.95;6.45;;;22.20;87.50;;;21.71;71.72;100720.41;5051762;28;20040;-78
2022/06/18 04:40:55;;;;;;;12.77;6.63;;;22.30;88.00;;;21.84;71.01;100708.97;5062540;28;20045;-78
2022/06/18 04:43:27;;;;;;;14.18;7.07;;;22.30;88.10;;;21.94;71.11;100716.56;5052934;28;20052;-78
2022/06/18 04:45:57;;;;;;;16.67;7.40;;;22.40;87.90;;;22.03;71.31;100709.50;5054292;28;20041;-78
2022/06/18 04:48:28;;;;;;;18.08;7.38;;;22.40;88.20;;;22.20;68.69;100709.41;5049273;28;20044;-78
2022/06/18 04:50:56;;;;;;;14.80;6.57;;;22.50;87.20;;;22.29;68.95;100709.84;5059947;28;20048;-78
2022/06/18 04:53:23;;;;;;;13.30;7.10;;;22.60;87.00;;;22.39;69.58;100709.97;5060111;28;20127;-78
2022/06/18 04:55:58;;;;;;;21.10;6.13;;;22.60;87.30;;;22.44;69.10;100708.09;5048780;28;20045;-77
2022/06/18 04:58:25;;;;;;;11.95;6.28;;;22.70;87.70;;;22.58;68.92;100703.00;5051699;28;20048;-77
2022/06/18 05:00:59;;;;;;;11.73;5.60;;;22.70;87.20;;;22.66;67.81;100696.16;5042575;28;20076;-77
2022/06/18 05:04:00;;;;;;;9.27;6.00;;;22.80;86.80;;;22.85;67.07;100702.19;5044197;28;20410;-77
2022/06/18 05:06:35;;;;;;;11.27;6.05;;;22.90;86.50;;;22.89;67.91;100697.78;5040760;28;20106;-77
2022/06/18 05:09:13;;;;;;;13.30;6.22;;;22.90;87.10;;;22.96;66.69;100706.75;5067890;28;20532;-76
2022/06/18 05:12:01;;;;;;;8.43;5.53;;;23.00;86.70;;;23.08;66.47;100703.00;5028790;28;20053;-76
2022/06/18 05:14:57;;;;;;;14.98;6.55;;;23.00;86.30;;;23.22;65.57;100701.44;5061063;28;20510;-77
2022/06/18 05:17:29;;;;;;;10.20;5.78;;;23.10;86.10;;;23.32;65.47;100700.69;5046258;28;20060;-77
2022/06/18 05:19:58;;;;;;;16.20;6.30;;;23.20;86.00;;;23.40;65.03;100703.81;5032649;28;20041;-77
2022/06/18 05:22:27;;;;;;;10.57;6.07;;;23.20;85.80;;;23.48;64.16;100698.88;5049202;28;20286;-77
2022/06/18 05:25:00;;;;;;;12.43;5.60;;;23.20;85.50;;;23.54;64.90;100698.63;5032540;28;20469;-77
2022/06/18 05:27:32;;;;;;;12.73;6.13;;;23.30;85.70;;;23.58;64.67;100699.78;5042298;28;20117;-77
2022/06/18 05:30:07;;;;;;;13.48;6.32;;;23.30;85.70;;;23.70;64.02;100699.56;5061825;28;20604;-77
2022/06/18 05:32:43;;;;;;;13.10;6.90;;;23.40;85.00;;;23.75;64.33;100694.06;5053855;28;20059;-77
2022/06/18 05:35:14;;;;;;;11.60;6.82;;;23.40;85.20;;;23.76;63.63;100689.31;5054158;28;20047;-77
2022/06/18 05:37:42;;;;;;;13.32;6.68;;;23.50;85.30;;;23.87;63.32;100698.59;5053824;28;20509;-77
2022/06/18 05:40:12;;;;;;;12.65;7.10;;;23.50;85.30;;;23.94;64.13;100688.09;5051961;28;20072;-77
2022/06/18 05:42:41;;;;;;;12.27;6.85;;;23.50;85.50;;;23.98;63.78;100690.03;5052826;28;20047;-77
2022/06/18 05:45:10;;;;;;;16.85;6.65;;;23.60;85.30;;;24.02;63.38;100687.56;5051260;28;20048;-77
2022/06/18 05:47:38;;;;;;;13.18;5.63;;;23.60;85.10;;;24.09;63.06;100688.16;5061406;28;20049;-77
2022/06/18 05:50:12;;;;;;;11.88;5.35;;;23.70;85.30;;;24.24;63.33;100686.53;5052551;28;20551;-78
2022/06/18 05:52:42;;;;;;;9.57;5.10;;;23.70;85.50;;;24.43;62.57;100687.75;5052759;28;20092;-78
2022/06/18 05:55:29;;;;;;;12.05;5.30;;;23.80;85.10;;;25.04;62.01;100681.50;5097827;22;20079;-82
2022/06/18 05:58:12;;;;;;;11.07;4.95;;;23.90;85.50;;;26.34;57.46;100676.25;5110206;28;20389;-79
2022/06/18 06:00:45;;;;;;;11.18;4.30;;;24.10;84.20;;;27.65;54.03;100670.31;5121038;28;20075;-79
2022/06/18 06:03:13;;;;;;;7.38;3.80;;;24.30;83.70;;;28.65;50.89;100673.31;5087468;28;20064;-79
2022/06/18 06:05:40;;;;;;;9.77;3.15;;;24.60;82.50;;;29.46;47.36;100673.16;5080958;28;20101;-79
2022/06/18 06:08:11;;;;;;;6.07;3.58;;;24.80;81.00;;;30.10;46.07;100676.19;5081644;28;20118;-79
2022/06/18 06:13:27;;;;;;;6.68;3.10;;;25.20;80.40;;;31.42;43.99;100686.66;5085708;28;20186;-79
2022/06/18 06:15:55;;;;;;;6.45;3.08;;;25.50;79.00;;;31.78;42.11;100686.56;5084963;28;20119;-79
2022/06/18 06:18:24;;;;;;;7.68;3.20;;;25.60;78.30;;;32.11;41.79;100686.22;5074051;28;20040;-79
2022/06/18 06:20:55;;;;;;;5.15;2.92;;;25.80;78.20;;;32.45;40.74;100687.47;5077243;28;20093;-79
2022/06/18 06:23:24;;;;;;;7.65;2.80;;;26.00;78.40;;;32.75;39.64;100682.06;5084514;28;20646;-82
2022/06/18 06:25:51;;;;;;;4.85;2.83;;;26.10;76.80;;;33.07;39.94;100684.41;5086413;28;20111;-83
2022/06/18 06:28:22;;;;;;;8.88;3.10;;;26.30;76.70;;;33.16;39.01;100686.41;5073142;28;20051;-81
2022/06/18 06:30:50;;;;;;;4.95;2.70;;;26.40;75.70;;;33.35;38.48;100686.88;5079524;28;20044;-81
2022/06/18 06:33:18;;;;;;;10.82;2.78;;;26.50;75.80;;;33.44;39.89;100690.50;5085265;28;20102;-78
2022/06/18 06:35:45;;;;;;;8.95;3.00;;;26.50;77.20;;;32.01;42.16;100697.75;5081217;28;20056;-80
2022/06/18 06:38:14;;;;;;;9.25;3.20;;;26.50;77.50;;;30.33;44.00;100704.34;5081729;28;20072;-80
2022/06/18 06:40:45;;;;;;;8.25;2.88;;;26.50;76.60;;;29.26;47.61;100696.78;5089944;28;20040;-81
2022/06/18 06:43:14;;;;;;;6.53;2.78;;;26.50;76.60;;;28.65;49.53;100701.31;5089492;28;20090;-81
2022/06/18 06:45:52;;;;;;;5.60;2.80;;;26.40;77.30;;;28.29;50.11;100707.38;5076151;28;20124;-80
2022/06/18 06:48:19;;;;;;;5.82;3.00;;;26.30;76.50;;;27.94;50.47;100695.47;5091724;28;20036;-81
2022/06/18 06:50:49;;;;;;;6.30;2.80;;;26.20;76.80;;;27.74;52.12;100701.25;5086945;28;20107;-80
2022/06/18 06:53:16;;;;;;;9.30;2.83;;;26.20;77.60;;;27.52;53.72;100699.78;5071939;28;20040;-80
2022/06/18 06:58:33;;;;;;;9.23;3.30;;;26.10;79.30;;;27.34;54.53;100704.16;5083986;28;20525;-81
2022/06/18 07:01:06;;;;;;;7.47;2.65;;;26.00;80.00;;;27.29;56.43;100705.03;5084847;28;20063;-81
2022/06/18 07:03:35;;;;;;;6.78;3.28;;;26.10;81.20;;;27.27;55.72;100698.91;5072599;28;20052;-81
2022/06/18 07:06:04;;;;;;;10.73;3.00;;;26.00;81.10;;;27.17;55.87;100704.53;5086411;28;20036;-80
2022/06/18 07:08:31;;;;;;;7.32;2.80;;;26.00;80.50;;;27.19;57.73;100695.84;5091501;28;20072;-79
2022/06/18 07:11:00;;;;;;;6.03;2.80;;;26.00;81.00;;;27.10;56.06;100693.69;5078333;28;20054;-80
2022/06/18 07:13:27;;;;;;;8.80;2.70;;;26.00;81.40;;;27.04;55.93;100688.44;5090304;28;20514;-79
2022/06/18 07:15:56;;;;;;;7.47;2.65;;;26.00;81.20;;;27.03;56.26;100692.34;5082772;28;20063;-80
2022/06/18 07:18:31;;;;;;;6.57;2.78;;;26.00;80.90;;;27.00;57.48;100687.38;5086052;28;20054;-80
2022/06/18 07:20:58;;;;;;;9.35;3.17;;;26.00;82.30;;;26.91;56.75;100684.34;5085524;28;20036;-79
2022/06/18 07:23:25;;;;;;;10.98;2.95;;;26.00;81.30;;;26.89;57.42;100687.41;5077677;28;20162;-80
2022/06/18 07:25:53;;;;;;;8.75;3.30;;;26.00;81.70;;;26.84;57.28;100681.84;5077725;28;20497;-80
2022/06/18 07:28:21;;;;;;;10.18;2.90;;;26.00;81.50;;;26.86;58.12;100681.56;5079617;28;20607;-79
2022/06/18 07:30:49;;;;;;;9.02;3.40;;;26.00;82.50;;;26.78;56.72;100680.22;5087291;28;20105;-79
2022/06/18 07:33:23;;;;;;;6.30;3.05;;;26.00;81.00;;;26.75;57.63;100672.44;5091423;28;20044;-78
2022/06/18 07:35:50;;;;;;;7.63;3.42;;;26.00;81.90;;;26.73;57.64;100688.63;5091482;28;20050;-80
2022/06/18 07:38:18;;;;;;;11.07;3.00;;;25.90;81.00;;;26.76;59.55;100682.47;5079700;28;20048;-78
2022/06/18 07:40:50;;;;;;;9.02;3.05;;;25.90;81.20;;;26.71;59.84;100674.13;5085004;28;20040;-78
2022/06/18 07:43:28;;;;;;;7.60;2.90;;;25.90;82.50;;;26.72;60.20;100670.22;5085975;28;20064;-77
2022/06/18 07:45:55;;;;;;;6.40;3.15;;;25.90;83.10;;;26.66;60.45;100674.19;5082548;28;20405;-78
2022/06/18 07:48:23;;;;;;;10.88;3.47;;;25.90;83.40;;;26.69;59.37;100665.22;5076669;28;20080;-78
2022/06/18 07:50:51;;;;;;;12.82;3.67;;;25.90;81.90;;;26.63;57.72;100672.78;5085224;28;21455;-77
2022/06/18 07:53:22;;;;;;;10.50;3.47;;;25.90;80.90;;;26.64;59.91;100674.47;5085260;28;20067;-78
2022/06/18 07:55:50;;;;;;;12.07;3.70;;;25.90;82.10;;;26.65;58.20;100666.91;5082027;28;20072;-79
2022/06/18 07:58:18;;;;;;;12.50;3.38;;;25.90;81.20;;;26.66;59.36;100671.38;5082723;28;20036;-77
2022/06/18 08:00:47;;;;;;;10.43;3.17;;;26.00;82.70;;;26.64;61.15;100660.50;5083490;28;20128;-76
2022/06/18 08:03:17;;;;;;;13.40;3.28;;;26.00;84.30;;;26.69;59.29;100660.47;5082597;28;20091;-80
2022/06/18 08:05:46;;;;;;;14.55;3.70;;;26.00;83.30;;;26.69;58.21;100654.03;5080691;28;20524;-78
2022/06/18 08:08:13;;;;;;;13.05;3.60;;;26.00;81.80;;;26.68;59.47;100652.38;5083160;28;20064;-83
2022/06/18 08:10:43;;;;;;;15.52;3.55;;;26.00;83.10;;;26.65;58.46;100653.78;5079915;28;20513;-85
2022/06/18 08:13:10;;;;;;;9.75;3.53;;;26.00;82.30;;;26.58;57.20;100644.03;5084372;28;20131;-84
2022/06/18 08:15:37;;;;;;;12.88;3.85;;;26.10;80.40;;;26.57;58.99;100640.41;5079747;28;20127;-81
2022/06/18 08:18:07;;;;;;;9.75;3.30;;;26.10;81.30;;;26.60;59.47;100639.03;5086842;28;20050;-85
2022/06/18 08:20:36;;;;;;;12.50;3.47;;;26.10;82.10;;;26.60;58.91;100630.66;5085613;28;20067;-84
2022/06/18 08:23:06;;;;;;;9.05;3.55;;;26.20;81.10;;;26.63;60.22;100630.09;5089102;28;20367;-83
2022/06/18 08:25:35;;;;;;;32.33;10.43;;;26.20;82.60;;;26.65;61.76;100625.03;5083681;28;20089;-82
2022/06/18 08:28:07;;;;;;;64.43;21.77;;;26.30;84.10;;;26.49;66.82;100627.91;5085217;28;20055;-83
2022/06/18 08:30:34;;;;;;;35.95;13.30;;;26.30;85.20;;;26.38;62.95;100629.09;5080050;28;20044;-82
2022/06/18 08:33:01;;;;;;;57.70;20.23;;;26.30;83.30;;;26.38;63.95;100626.28;5082331;28;20043;-82
2022/06/18 08:35:31;;;;;;;31.13;10.95;;;26.30;83.90;;;26.42;64.16;100634.94;5086556;28;20123;-82
2022/06/18 08:37:58;;;;;;;22.92;7.50;;;26.30;85.00;;;26.43;62.22;100626.28;5080010;28;20123;-81
2022/06/18 08:40:45;;;;;;;34.70;11.70;;;26.30;82.90;;;26.46;63.75;100638.81;5086228;28;20114;-81
2022/06/18 08:43:45;;;;;;;46.05;12.75;;;26.30;84.80;;;26.23;71.87;100629.16;5086796;28;20489;-80
2022/06/18 08:46:29;;;;;;;164.73;41.03;;;26.30;88.10;;;25.06;98.66;100629.13;5093916;28;20055;-80
2022/06/18 08:49:24;;;;;;;92.68;27.27;;;25.70;99.90;;;24.69;100.00;100626.59;5073126;28;20119;-81
2022/06/18 08:52:10;;;;;;;21.00;8.88;;;25.30;99.90;;;24.64;98.16;100621.06;5075151;28;20033;-82
2022/06/18 08:54:52;;;;;;;66.18;22.75;;;25.10;99.90;;;24.82;90.98;100633.59;5082784;28;20047;-82
2022/06/18 08:57:30;;;;;;;22.13;9.07;;;25.00;99.90;;;24.92;87.15;100631.66;5076202;28;20036;-82
2022/06/18 09:00:09;;;;;;;58.40;17.50;;;25.00;99.90;;;24.70;86.09;100626.34;5082302;28;20044;-81
2022/06/18 09:02:42;;;;;;;29.52;10.70;;;24.90;99.90;;;24.90;84.57;100633.88;5076839;28;20457;-81
2022/06/18 09:05:23;;;;;;;415.60;161.73;;;25.00;99.90;;;24.87;89.76;100633.59;5095921;28;20047;-79
2022/06/18 09:08:24;;;;;;;13.88;5.15;;;25.10;99.90;;;25.12;83.05;100621.63;5074885;28;20048;-78
2022/06/18 09:11:19;;;;;;;12.20;4.45;;;25.20;98.80;;;25.32;78.74;100624.44;5073255;28;20105;-80
2022/06/18 09:13:54;;;;;;;15.20;5.43;;;25.30;96.90;;;25.48;76.46;100621.59;5077973;28;20374;-80
2022/06/18 09:16:29;;;;;;;12.43;4.25;;;25.40;96.70;;;25.69;71.95;100614.84;5086260;28;20040;-84
2022/06/18 09:18:58;;;;;;;17.50;5.13;;;25.50;92.50;;;25.85;71.85;100623.16;5084983;28;20053;-83
2022/06/18 09:21:43;;;;;;;15.60;4.80;;;25.60;93.10;;;25.93;70.29;100619.81;5075198;28;20135;-83
2022/06/18 09:24:17;;;;;;;13.68;4.75;;;25.70;91.90;;;26.01;70.88;100622.03;5096915;28;20075;-83
2022/06/18 09:26:51;;;;;;;17.83;5.18;;;25.80;92.00;;;26.10;67.63;100617.53;5093313;28;20136;-89
2022/06/18 09:29:25;;;;;;;8.45;3.60;;;25.80;89.50;;;26.18;70.81;100620.81;5084782;28;20071;-86
2022/06/18 09:32:01;;;;;;;9.30;4.07;;;25.90;91.20;;;26.17;67.78;100620.00;5086495;28;20082;-85
2022/06/18 09:34:36;;;;;;;258.42;65.13;;;25.90;89.30;;;26.13;70.45;100618.91;5082929;28;20107;-85
2022/06/18 09:37:11;;;;;;;57.58;15.45;;;26.00;92.10;;;25.32;100.00;100610.50;5081682;28;20522;-84
2022/06/18 09:39:43;;;;;;;60.88;16.92;;;25.90;92.50;;;24.96;100.00;100618.00;5084807;28;20043;-83
2022/06/18 09:42:18;;;;;;;268.30;81.05;;;25.90;93.60;;;24.95;100.00;100616.31;5079960;28;20123;-84
2022/06/18 09:44:52;;;;;;;292.35;87.30;;;25.70;96.70;;;24.36;100.00;100609.28;5100626;28;20075;-85
2022/06/18 09:47:29;;;;;;;12.68;5.25;;;25.40;99.90;;;24.35;100.00;100614.00;5078184;28;20055;-86
2022/06/18 09:49:57;;;;;;;14.07;4.30;;;25.50;98.10;;;24.63;100.00;100614.63;5084211;28;20036;-83
2022/06/18 09:52:33;;;;;;;12.45;4.63;;;25.60;95.90;;;25.09;99.18;100611.03;5085498;28;20118;-82
2022/06/18 09:55:07;;;;;;;14.35;4.30;;;25.70;96.30;;;25.48;84.51;100621.59;5090042;28;20047;-85
2022/06/18 09:57:40;;;;;;;10.30;4.18;;;25.80;93.80;;;25.85;78.98;100624.00;5084812;28;20123;-85
2022/06/18 10:00:14;;;;;;;9.55;3.88;;;26.00;93.10;;;26.13;71.07;100625.31;5079973;28;20036;-84
2022/06/18 10:02:47;;;;;;;17.85;4.60;;;26.00;88.60;;;26.34;75.73;100620.44;5070519;28;20094;-83
2022/06/18 10:08:09;;;;;;;11.75;4.03;;;26.20;91.20;;;26.49;73.04;100616.75;5077074;28;20039;-83
2022/06/18 10:10:44;;;;;;;9.82;4.38;;;26.20;90.10;;;26.54;69.19;100607.50;5084648;28;20040;-83
2022/06/18 10:13:18;;;;;;;13.27;3.90;;;26.30;87.50;;;26.58;70.84;100610.53;5096839;28;20113;-83
2022/06/18 10:15:46;;;;;;;9.25;3.95;;;26.30;88.70;;;26.72;67.98;100608.81;5072331;28;20810;-84
2022/06/18 10:18:39;;;;;;;11.88;3.95;;;26.30;87.60;;;26.74;64.72;100606.56;5084059;28;20044;-83
2022/06/18 10:21:17;;;;;;;14.52;4.25;;;26.40;84.90;;;26.82;66.82;100608.72;5094098;28;20130;-83
2022/06/18 10:23:57;;;;;;;10.88;4.18;;;26.50;86.80;;;26.92;65.84;100603.06;5090751;28;20044;-83
2022/06/18 10:26:38;;;;;;;21.23;4.55;;;26.50;86.00;;;26.92;65.50;100591.88;5086349;28;20115;-83
2022/06/18 10:29:18;;;;;;;9.05;3.78;;;26.50;86.40;;;27.06;64.20;100596.78;5092902;28;20046;-84
2022/06/18 10:32:12;;;;;;;10.73;3.95;;;26.60;84.80;;;27.17;66.28;100591.94;5080542;28;20059;-83
2022/06/18 10:35:12;;;;;;;9.05;3.50;;;26.80;86.80;;;27.18;60.93;100588.84;5073379;28;20037;-83
2022/06/18 10:37:57;;;;;;;13.25;3.70;;;26.80;82.60;;;27.19;62.20;100584.09;5073386;28;20067;-84
2022/06/18 10:40:44;;;;;;;12.73;3.90;;;26.80;83.00;;;27.25;63.69;100594.97;5073108;28;20048;-84
2022/06/18 10:43:32;;;;;;;14.77;4.20;;;26.80;84.60;;;27.34;61.17;100585.94;5073268;28;20076;-84
2022/06/18 10:46:06;;;;;;;16.92;3.58;;;26.80;83.80;;;27.37;59.36;100582.56;5084602;28;20119;-84
2022/06/18 10:48:34;;;;;;;15.10;3.85;;;26.90;81.80;;;27.57;56.32;100576.75;5084616;28;20043;-84